Terminal Aerodrome Forecast
Issued by NWS

Current Version | Previous Version | Text Only | Print | Product List | Glossary On
Versions: 1 2 3 4 5 6 7 8 9 10 11 12 13 14 15 16 17 18 19 20 21 22 23 24 25 26 27 28
000
FTUS45 KBOU 152339
TAFAPA
TAF
KAPA 152339Z 1600/1624 18006KT P6SM FEW120 FEW200
     FM160300 21008KT P6SM SCT140 BKN200
     FM161400 16006KT P6SM SCT140 BKN180
     FM161600 03010KT P6SM BKN110 BKN180
     FM162100 07008KT P6SM SCT060 BKN100=

USA.gov is the U.S. government's official web portal to all federal, state and local government web resources and services.